Time;durP1;ratioP1;P1;durP2;ratioP2;P2;SDS_P1;SDS_P2;PMS_P1;PMS_P2;Temp;Humidity;BMP_temperature;BMP_pressure;BME280_temperature;BME280_humidity;BME280_pressure;Samples;Min_cycle;Max_cycle;Signal;HPM_P1;HPM_P2
2022/08/25 00:06:26;;;;;;;3.62;2.35;;;;;;;17.03;95.23;97695.50;18101005;32;20225;-62
2022/08/25 00:16:30;;;;;;;2.17;1.73;;;;;;;16.87;95.72;97690.41;18100461;32;20090;-62
2022/08/25 00:26:32;;;;;;;4.70;2.08;;;;;;;16.73;96.02;97693.19;18026680;32;20126;-63
2022/08/25 00:36:36;;;;;;;4.45;2.35;;;;;;;16.60;96.27;97694.84;18037886;32;20095;-62
2022/08/25 00:46:43;;;;;;;2.83;2.50;;;;;;;16.48;96.91;97716.41;18037369;32;20084;-62
2022/08/25 00:56:48;;;;;;;2.45;2.20;;;;;;;16.37;97.36;97701.41;18093913;32;20059;-62
2022/08/25 01:06:51;;;;;;;3.78;2.47;;;;;;;16.25;98.10;97700.03;18188621;32;20047;-62
2022/08/25 01:16:54;;;;;;;4.37;2.43;;;;;;;16.16;98.60;97715.50;18232366;32;20109;-63
2022/08/25 01:26:57;;;;;;;4.80;2.83;;;;;;;16.06;98.86;97694.69;18231921;32;20107;-62
2022/08/25 01:36:59;;;;;;;3.97;2.50;;;;;;;15.93;99.43;97699.03;18231521;32;20074;-64
2022/08/25 01:47:03;;;;;;;4.50;2.60;;;;;;;15.83;99.70;97709.38;18034814;32;20416;-62
2022/08/25 01:57:05;;;;;;;3.15;2.35;;;;;;;15.73;100.00;97715.78;18034565;32;20390;-63
2022/08/25 02:07:08;;;;;;;3.22;2.53;;;;;;;15.66;100.00;97727.06;18021546;32;20067;-63
2022/08/25 02:17:10;;;;;;;3.22;2.22;;;;;;;15.57;100.00;97737.87;18195246;32;20054;-62
2022/08/25 02:27:13;;;;;;;4.70;2.58;;;;;;;15.48;100.00;97720.59;18239958;32;20085;-63
2022/08/25 02:37:15;;;;;;;2.90;2.42;;;;;;;15.40;100.00;97707.66;18226330;32;20051;-63
2022/08/25 02:47:18;;;;;;;2.83;2.40;;;;;;;15.30;100.00;97702.44;18043109;32;20109;-62
2022/08/25 02:57:28;;;;;;;2.70;2.00;;;;;;;15.20;100.00;97709.66;18043026;32;20067;-63
2022/08/25 03:07:30;;;;;;;2.78;2.47;;;;;;;15.12;100.00;97723.97;18029588;32;20059;-62
2022/08/25 03:17:36;;;;;;;3.08;2.42;;;;;;;15.07;100.00;97726.78;18199906;32;20066;-62
2022/08/25 03:27:39;;;;;;;3.55;2.45;;;;;;;14.98;100.00;97712.22;18102194;32;20062;-63
2022/08/25 03:37:41;;;;;;;2.58;2.35;;;;;;;14.90;100.00;97711.78;18102546;32;20071;-63
2022/08/25 03:47:49;;;;;;;2.95;2.40;;;;;;;14.81;100.00;97699.97;18089780;32;20110;-63
2022/08/25 03:57:54;;;;;;;2.97;2.60;;;;;;;14.75;100.00;97695.72;18209077;32;20106;-63
2022/08/25 04:08:00;;;;;;;3.42;2.55;;;;;;;14.71;100.00;97713.75;18235375;32;20453;-63
2022/08/25 04:18:03;;;;;;;3.58;2.97;;;;;;;14.61;100.00;97703.78;18235612;32;20434;-63
2022/08/25 04:28:08;;;;;;;3.47;2.67;;;;;;;14.54;100.00;97698.72;18234667;32;20046;-63
2022/08/25 04:38:12;;;;;;;3.47;2.50;;;;;;;14.42;100.00;97695.62;18233968;32;20063;-63
2022/08/25 04:48:15;;;;;;;3.53;2.47;;;;;;;14.35;100.00;97692.50;18234305;32;20161;-63
2022/08/25 04:58:19;;;;;;;2.95;2.58;;;;;;;14.34;100.00;97688.12;18233118;32;20388;-63
2022/08/25 05:08:22;;;;;;;4.80;2.80;;;;;;;14.29;100.00;97678.13;18232590;32;20071;-63
2022/08/25 05:18:28;;;;;;;3.27;2.97;;;;;;;14.29;100.00;97671.88;18232704;32;20062;-63
2022/08/25 05:28:31;;;;;;;6.35;3.15;;;;;;;14.39;100.00;97688.88;18218384;32;20374;-63
2022/08/25 05:38:34;;;;;;;4.12;3.05;;;;;;;14.66;100.00;97683.87;18231454;32;20058;-63
2022/08/25 05:48:38;;;;;;;2.83;2.50;;;;;;;14.95;100.00;97674.69;18233282;32;20480;-63
2022/08/25 05:58:45;;;;;;;4.45;3.95;;;;;;;15.29;100.00;97663.47;18241682;32;20054;-64
2022/08/25 06:08:50;;;;;;;3.83;3.22;;;;;;;15.73;100.00;97667.53;18240521;32;20106;-63
2022/08/25 06:18:54;;;;;;;5.03;3.62;;;;;;;16.13;100.00;97652.53;18240465;32;20062;-64
2022/08/25 06:28:57;;;;;;;;;;;;;;;16.56;100.00;97660.31;18240101;32;20074;-64
2022/08/25 06:39:00;;;;;;;6.35;3.37;;;;;;;17.04;100.00;97659.69;18239726;32;19968;-63
2022/08/25 06:49:05;;;;;;;4.35;3.53;;;;;;;17.52;98.74;97658.12;18238898;32;20102;-64
2022/08/25 06:59:09;;;;;;;3.60;3.08;;;;;;;18.08;96.86;97668.63;18224800;32;20066;-64
2022/08/25 07:09:34;;;;;;;5.07;3.83;;;;;;;18.62;94.35;97666.41;18237786;32;20069;-63
2022/08/25 07:19:41;;;;;;;5.45;3.12;;;;;;;19.17;91.31;97666.84;18237799;32;20102;-63
2022/08/25 07:29:52;;;;;;;4.18;2.95;;;;;;;19.79;89.47;97670.94;18223843;32;20072;-63
2022/08/25 07:40:26;;;;;;;3.42;2.72;;;;;;;20.29;84.13;97674.84;18236880;32;20058;-64
2022/08/25 07:51:21;;;;;;;4.82;3.03;;;;;;;20.84;79.83;97672.19;18229669;32;20054;-64
2022/08/25 08:01:27;;;;;;;4.55;2.45;;;;;;;21.47;75.88;97683.03;18235511;32;20065;-64
2022/08/25 08:11:43;;;;;;;3.20;2.45;;;;;;;21.89;73.60;97686.75;18221707;32;20047;-64
2022/08/25 08:22:04;;;;;;;5.70;2.33;;;;;;;22.45;71.26;97688.88;18235300;32;20094;-64
2022/08/25 08:32:27;;;;;;;2.60;2.30;;;;;;;22.85;68.41;97696.31;18234063;32;20093;-64
2022/08/25 08:43:26;;;;;;;;;;;;;;;;;;;;;
2022/08/25 08:54:38;;;;;;;3.22;2.45;;;;;;;23.82;65.96;97685.09;18233546;32;20088;-63
2022/08/25 09:05:21;;;;;;;;;;;;;;;;;;;;;
2022/08/25 09:28:01;;;;;;;3.25;2.50;;;;;;;24.80;62.76;97687.28;18230936;32;20423;-63
2022/08/25 09:38:10;;;;;;;3.65;2.83;;;;;;;25.35;61.49;97681.63;18230548;32;20090;-63
2022/08/25 09:48:29;;;;;;;3.42;2.60;;;;;;;25.64;56.53;97682.94;18159662;32;20074;-63
2022/08/25 09:58:40;;;;;;;3.95;2.65;;;;;;;25.95;58.23;97678.28;18159055;32;20204;-63
2022/08/25 10:08:44;;;;;;;3.00;2.67;;;;;;;26.28;57.56;97668.50;18145329;32;20377;-63
2022/08/25 10:19:22;;;;;;;5.60;2.75;;;;;;;26.71;57.97;97663.53;18165742;32;20363;-63
2022/08/25 10:29:45;;;;;;;3.42;2.30;;;;;;;27.09;56.65;97660.00;18166561;32;20065;-63
2022/08/25 10:39:57;;;;;;;2.87;2.55;;;;;;;27.15;48.33;97644.63;18174983;32;20109;-62
2022/08/25 10:50:12;;;;;;;2.50;2.30;;;;;;;27.46;49.83;97642.53;18176681;32;20046;-62
2022/08/25 11:00:21;;;;;;;2.65;2.45;;;;;;;27.82;49.17;97634.47;18163612;32;20097;-62
2022/08/25 11:10:36;;;;;;;3.17;2.23;;;;;;;27.99;46.20;97621.91;18175980;32;20062;-62
2022/08/25 11:20:50;;;;;;;2.62;2.12;;;;;;;28.28;47.75;97620.09;18161536;32;20067;-62
2022/08/25 11:30:56;;;;;;;2.83;2.20;;;;;;;28.43;48.81;97607.06;18173540;32;20084;-62
2022/08/25 11:41:23;;;;;;;3.35;2.70;;;;;;;28.77;50.65;97597.69;18174172;32;20054;-62
2022/08/25 11:51:33;;;;;;;2.80;2.60;;;;;;;28.98;48.38;97594.16;18171778;32;20094;-62
2022/08/25 12:01:41;;;;;;;2.45;2.17;;;;;;;29.26;44.95;97585.06;18179795;32;20114;-61
2022/08/25 12:11:57;;;;;;;3.28;2.70;;;;;;;29.55;44.40;97576.72;18235616;32;20472;-62
2022/08/25 12:22:02;;;;;;;3.10;2.15;;;;;;;29.94;45.79;97561.94;18235539;32;20081;-62
2022/08/25 12:32:17;;;;;;;5.55;2.75;;;;;;;30.34;48.24;97556.22;18100000;32;20082;-62
2022/08/25 12:42:47;;;;;;;3.80;2.22;;;;;;;30.79;44.67;97555.63;18099690;32;20066;-62
2022/08/25 12:52:55;;;;;;;2.45;2.25;;;;;;;30.96;41.88;97553.91;18086523;32;20091;-62
2022/08/25 13:03:26;;;;;;;2.45;2.12;;;;;;;31.23;40.43;97548.53;18214677;32;20057;-62
2022/08/25 13:14:04;;;;;;;3.08;2.37;;;;;;;31.52;41.82;97542.72;18207363;32;20080;-62
2022/08/25 13:24:21;;;;;;;3.05;2.10;;;;;;;32.22;36.02;97522.03;18219028;32;20476;-62
2022/08/25 13:34:29;;;;;;;2.70;2.08;;;;;;;32.35;36.95;97533.47;18231983;32;20063;-62
2022/08/25 13:44:40;;;;;;;3.45;2.35;;;;;;;32.54;36.59;97520.81;18231393;32;20070;-62
2022/08/25 13:55:01;;;;;;;1.98;1.77;;;;;;;32.97;33.79;97511.03;18219376;32;20131;-62
2022/08/25 14:05:12;;;;;;;2.15;1.73;;;;;;;32.97;32.74;97503.41;18230098;32;20051;-62
2022/08/25 14:15:18;;;;;;;2.45;2.25;;;;;;;33.31;40.75;97496.88;18238569;32;20058;-61
2022/08/25 14:25:26;;;;;;;2.50;2.00;;;;;;;33.36;37.11;97496.38;18240751;32;20054;-61
2022/08/25 14:35:33;;;;;;;4.03;2.20;;;;;;;32.83;33.75;97486.84;18226561;32;20058;-61
2022/08/25 14:45:41;;;;;;;2.65;1.65;;;;;;;33.04;35.61;97478.09;18239251;32;20062;-61
2022/08/25 14:55:52;;;;;;;2.70;2.30;;;;;;;32.65;36.13;97481.50;18239353;32;20392;-61
2022/08/25 15:06:00;;;;;;;2.95;2.20;;;;;;;31.54;36.06;97459.28;18238264;32;20066;-62
2022/08/25 15:16:06;;;;;;;2.40;2.20;;;;;;;30.67;40.51;97457.22;18238114;32;20085;-61
2022/08/25 15:26:12;;;;;;;3.40;2.30;;;;;;;30.06;42.06;97446.41;18223449;32;20059;-62
2022/08/25 15:36:18;;;;;;;2.60;2.40;;;;;;;29.71;41.28;97437.78;18237242;32;20084;-62
2022/08/25 15:46:23;;;;;;;3.10;2.65;;;;;;;29.28;48.20;97428.75;18236519;32;20339;-62
2022/08/25 15:56:27;;;;;;;2.45;2.25;;;;;;;28.80;48.72;97425.16;18236467;32;20112;-62
2022/08/25 16:06:30;;;;;;;4.22;2.65;;;;;;;28.51;51.63;97418.78;18235518;32;20066;-62
2022/08/25 16:16:33;;;;;;;2.95;2.65;;;;;;;28.16;52.62;97411.97;18221884;32;20085;-62
2022/08/25 16:26:41;;;;;;;3.28;2.33;;;;;;;27.79;55.53;97421.34;18235173;32;20407;-62
2022/08/25 16:36:49;;;;;;;3.17;2.47;;;;;;;27.41;58.42;97406.88;18234086;32;20066;-62
2022/08/25 16:46:54;;;;;;;2.53;2.33;;;;;;;27.11;59.20;97407.91;18234270;32;20113;-62
2022/08/25 16:56:57;;;;;;;2.95;2.17;;;;;;;27.07;60.73;97396.75;18207375;32;20095;-62
2022/08/25 17:07:00;;;;;;;2.75;2.45;;;;;;;26.84;60.77;97388.66;18233009;32;20058;-62
2022/08/25 17:17:03;;;;;;;2.60;2.17;;;;;;;26.33;62.80;97392.97;18232719;32;20100;-62
2022/08/25 17:27:09;;;;;;;3.12;2.47;;;;;;;25.80;63.85;97391.22;18232088;32;20074;-62
2022/08/25 17:37:12;;;;;;;3.67;3.08;;;;;;;25.34;64.87;97395.78;18231811;32;20077;-62
2022/08/25 17:47:15;;;;;;;2.55;2.35;;;;;;;24.90;65.55;97387.22;18236612;32;20058;-62
2022/08/25 17:57:19;;;;;;;2.67;2.47;;;;;;;24.46;67.65;97386.50;18227891;32;20066;-62
2022/08/25 18:07:22;;;;;;;3.00;2.47;;;;;;;24.01;68.95;97377.84;18240744;32;20095;-62
2022/08/25 18:17:26;;;;;;;2.92;2.55;;;;;;;23.62;72.03;97386.09;18240712;32;20070;-62
2022/08/25 18:27:30;;;;;;;4.90;3.17;;;;;;;23.21;74.90;97387.63;18240055;32;20059;-62
2022/08/25 18:47:58;;;;;;;4.60;3.03;;;;;;;22.43;78.65;97399.16;18239845;32;20054;-62
2022/08/25 18:58:04;;;;;;;3.17;2.87;;;;;;;22.05;79.75;97404.06;18225274;32;20073;-62
2022/08/25 19:08:12;;;;;;;3.17;2.85;;;;;;;21.80;80.73;97414.38;18238031;32;20099;-62
2022/08/25 19:18:20;;;;;;;2.70;2.50;;;;;;;21.58;81.53;97413.75;18225056;32;20067;-62
2022/08/25 19:28:31;;;;;;;3.05;2.35;;;;;;;21.37;82.31;97407.63;18237729;32;20423;-62
2022/08/25 19:38:36;;;;;;;3.80;2.50;;;;;;;21.19;84.29;97412.59;18237098;32;20415;-62
2022/08/25 19:48:40;;;;;;;4.62;2.40;;;;;;;21.06;85.04;97417.28;18236952;32;20448;-62
2022/08/25 19:58:46;;;;;;;3.50;2.58;;;;;;;20.93;85.64;97427.50;18222997;32;20058;-62
2022/08/25 20:08:49;;;;;;;2.72;2.50;;;;;;;20.70;86.34;97425.22;18235376;32;20101;-62
2022/08/25 20:19:04;;;;;;;2.80;2.57;;;;;;;20.42;87.33;97431.34;18235835;32;20084;-62
2022/08/25 20:29:11;;;;;;;3.15;2.85;;;;;;;20.25;89.45;97440.56;18235064;32;20343;-62
2022/08/25 20:39:16;;;;;;;3.15;2.75;;;;;;;20.07;89.62;97444.62;18234511;32;20066;-62
2022/08/25 20:49:20;;;;;;;5.50;2.92;;;;;;;19.88;89.93;97447.87;18233900;32;20058;-62
2022/08/25 20:59:25;;;;;;;3.22;2.92;;;;;;;19.67;91.42;97453.34;18219777;32;20090;-62
2022/08/25 21:09:28;;;;;;;3.50;3.20;;;;;;;19.54;92.75;97450.56;18232673;32;20105;-62
2022/08/25 21:19:32;;;;;;;4.07;3.03;;;;;;;19.33;92.88;97455.22;18232492;32;20062;-62
2022/08/25 21:29:34;;;;;;;4.13;3.33;;;;;;;19.16;93.57;97459.66;18097865;32;20087;-62
2022/08/25 21:39:37;;;;;;;4.43;2.67;;;;;;;19.02;94.31;97470.06;18097407;32;20079;-62
2022/08/25 21:49:42;;;;;;;3.28;2.97;;;;;;;18.91;95.03;97467.69;18097017;32;20131;-62
2022/08/25 21:59:45;;;;;;;5.30;3.63;;;;;;;18.71;95.44;97468.41;18116674;32;20415;-62
2022/08/25 22:09:47;;;;;;;3.70;3.25;;;;;;;18.58;95.65;97465.56;18230007;32;20100;-62
2022/08/25 22:19:51;;;;;;;3.87;3.30;;;;;;;18.42;95.21;97469.97;18230085;32;20111;-62
2022/08/25 22:29:55;;;;;;;3.30;3.00;;;;;;;18.27;95.81;97468.53;18097070;32;20066;-62
2022/08/25 22:39:57;;;;;;;5.57;3.30;;;;;;;18.16;96.37;97479.03;18105782;32;20179;-62
2022/08/25 22:50:00;;;;;;;3.72;3.20;;;;;;;18.09;96.69;97473.25;18105297;32;20482;-61
2022/08/25 23:00:06;;;;;;;3.30;2.53;;;;;;;17.95;97.28;97468.75;18210446;32;20070;-62
2022/08/25 23:10:11;;;;;;;3.70;2.85;;;;;;;17.88;97.74;97473.06;18162321;32;20063;-62
2022/08/25 23:30:34;;;;;;;3.90;3.10;;;;;;;17.75;98.79;97458.44;18173588;32;20078;-62
2022/08/25 23:40:42;;;;;;;4.87;3.50;;;;;;;17.67;99.22;97470.19;18172361;32;20120;-62
2022/08/25 23:50:47;;;;;;;5.10;3.60;;;;;;;17.60;100.00;97470.66;18152185;32;20089;-62
